sensor_id;sensor_type;location;lat;lon;timestamp;temperature;humidity
67759;SHT31;54562;47.620;18.786;2023-04-25T00:03:02;10.95;79.28
67759;SHT31;54562;47.620;18.786;2023-04-25T00:06:12;10.93;79.33
67759;SHT31;54562;47.620;18.786;2023-04-25T00:09:22;10.91;79.47
67759;SHT31;54562;47.620;18.786;2023-04-25T00:12:28;10.88;79.47
67759;SHT31;54562;47.620;18.786;2023-04-25T00:15:36;10.85;79.53
67759;SHT31;54562;47.620;18.786;2023-04-25T00:18:44;10.82;79.63
67759;SHT31;54562;47.620;18.786;2023-04-25T00:21:54;10.80;79.75
67759;SHT31;54562;47.620;18.786;2023-04-25T00:25:01;10.77;79.88
67759;SHT31;54562;47.620;18.786;2023-04-25T00:28:09;10.74;79.99
67759;SHT31;54562;47.620;18.786;2023-04-25T00:31:15;10.70;80.23
67759;SHT31;54562;47.620;18.786;2023-04-25T00:34:22;10.70;80.42
67759;SHT31;54562;47.620;18.786;2023-04-25T00:37:29;10.69;80.57
67759;SHT31;54562;47.620;18.786;2023-04-25T00:40:35;10.69;80.67
67759;SHT31;54562;47.620;18.786;2023-04-25T00:43:42;10.68;80.79
67759;SHT31;54562;47.620;18.786;2023-04-25T00:46:50;10.68;80.82
67759;SHT31;54562;47.620;18.786;2023-04-25T00:49:56;10.68;80.95
67759;SHT31;54562;47.620;18.786;2023-04-25T00:53:03;10.67;81.03
67759;SHT31;54562;47.620;18.786;2023-04-25T00:56:10;10.66;81.02
67759;SHT31;54562;47.620;18.786;2023-04-25T00:59:16;10.66;81.04
67759;SHT31;54562;47.620;18.786;2023-04-25T01:02:23;10.64;81.03
67759;SHT31;54562;47.620;18.786;2023-04-25T01:05:30;10.63;81.00
67759;SHT31;54562;47.620;18.786;2023-04-25T01:08:37;10.61;80.90
67759;SHT31;54562;47.620;18.786;2023-04-25T01:11:43;10.60;80.88
67759;SHT31;54562;47.620;18.786;2023-04-25T01:14:49;10.59;80.72
67759;SHT31;54562;47.620;18.786;2023-04-25T01:17:56;10.58;80.43
67759;SHT31;54562;47.620;18.786;2023-04-25T01:21:07;10.60;80.19
67759;SHT31;54562;47.620;18.786;2023-04-25T01:24:14;10.61;79.82
67759;SHT31;54562;47.620;18.786;2023-04-25T01:27:21;10.63;79.43
67759;SHT31;54562;47.620;18.786;2023-04-25T01:30:28;10.64;79.22
67759;SHT31;54562;47.620;18.786;2023-04-25T01:33:34;10.66;79.02
67759;SHT31;54562;47.620;18.786;2023-04-25T01:36:41;10.64;78.91
67759;SHT31;54562;47.620;18.786;2023-04-25T01:39:48;10.62;78.80
67759;SHT31;54562;47.620;18.786;2023-04-25T01:42:54;10.61;78.75
67759;SHT31;54562;47.620;18.786;2023-04-25T01:46:02;10.59;78.62
67759;SHT31;54562;47.620;18.786;2023-04-25T01:49:09;10.56;78.52
67759;SHT31;54562;47.620;18.786;2023-04-25T01:52:15;10.53;78.41
67759;SHT31;54562;47.620;18.786;2023-04-25T01:55:22;10.53;78.36
67759;SHT31;54562;47.620;18.786;2023-04-25T01:58:28;10.51;78.23
67759;SHT31;54562;47.620;18.786;2023-04-25T02:01:34;10.51;78.09
67759;SHT31;54562;47.620;18.786;2023-04-25T02:04:42;10.49;77.92
67759;SHT31;54562;47.620;18.786;2023-04-25T02:07:49;10.49;77.65
67759;SHT31;54562;47.620;18.786;2023-04-25T02:10:55;10.50;77.42
67759;SHT31;54562;47.620;18.786;2023-04-25T02:14:02;10.53;77.10
67759;SHT31;54562;47.620;18.786;2023-04-25T02:17:09;10.55;76.85
67759;SHT31;54562;47.620;18.786;2023-04-25T02:20:17;10.55;77.04
67759;SHT31;54562;47.620;18.786;2023-04-25T02:23:24;10.52;77.24
67759;SHT31;54562;47.620;18.786;2023-04-25T02:26:30;10.48;77.38
67759;SHT31;54562;47.620;18.786;2023-04-25T02:29:37;10.44;77.48
67759;SHT31;54562;47.620;18.786;2023-04-25T02:32:44;10.38;77.50
67759;SHT31;54562;47.620;18.786;2023-04-25T02:35:50;10.35;77.57
67759;SHT31;54562;47.620;18.786;2023-04-25T02:38:57;10.30;77.60
67759;SHT31;54562;47.620;18.786;2023-04-25T02:42:03;10.25;77.67
67759;SHT31;54562;47.620;18.786;2023-04-25T02:45:10;10.19;77.78
67759;SHT31;54562;47.620;18.786;2023-04-25T02:48:16;10.14;77.87
67759;SHT31;54562;47.620;18.786;2023-04-25T02:51:23;10.06;77.93
67759;SHT31;54562;47.620;18.786;2023-04-25T02:54:30;10.01;77.98
67759;SHT31;54562;47.620;18.786;2023-04-25T02:57:36;9.95;78.08
67759;SHT31;54562;47.620;18.786;2023-04-25T03:00:43;9.89;78.24
67759;SHT31;54562;47.620;18.786;2023-04-25T03:03:49;9.82;78.36
67759;SHT31;54562;47.620;18.786;2023-04-25T03:06:56;9.77;78.58
67759;SHT31;54562;47.620;18.786;2023-04-25T03:10:02;9.72;78.69
67759;SHT31;54562;47.620;18.786;2023-04-25T03:16:33;9.63;78.92
67759;SHT31;54562;47.620;18.786;2023-04-25T03:19:39;9.60;79.05
67759;SHT31;54562;47.620;18.786;2023-04-25T03:22:45;9.57;79.13
67759;SHT31;54562;47.620;18.786;2023-04-25T03:25:51;9.54;79.28
67759;SHT31;54562;47.620;18.786;2023-04-25T03:28:58;9.53;79.33
67759;SHT31;54562;47.620;18.786;2023-04-25T03:32:04;9.52;79.43
67759;SHT31;54562;47.620;18.786;2023-04-25T03:35:11;9.49;79.54
67759;SHT31;54562;47.620;18.786;2023-04-25T03:38:17;9.48;79.65
67759;SHT31;54562;47.620;18.786;2023-04-25T03:41:24;9.46;79.71
67759;SHT31;54562;47.620;18.786;2023-04-25T03:44:30;9.45;79.81
67759;SHT31;54562;47.620;18.786;2023-04-25T03:47:36;9.43;79.84
67759;SHT31;54562;47.620;18.786;2023-04-25T03:50:43;9.43;79.86
67759;SHT31;54562;47.620;18.786;2023-04-25T03:53:49;9.41;79.93
67759;SHT31;54562;47.620;18.786;2023-04-25T03:56:56;9.41;79.91
67759;SHT31;54562;47.620;18.786;2023-04-25T04:00:02;9.40;79.88
67759;SHT31;54562;47.620;18.786;2023-04-25T04:03:11;9.40;79.91
67759;SHT31;54562;47.620;18.786;2023-04-25T04:06:17;9.40;79.99
67759;SHT31;54562;47.620;18.786;2023-04-25T04:09:24;9.37;80.05
67759;SHT31;54562;47.620;18.786;2023-04-25T04:12:30;9.36;80.18
67759;SHT31;54562;47.620;18.786;2023-04-25T04:15:36;9.33;80.38
67759;SHT31;54562;47.620;18.786;2023-04-25T04:18:43;9.30;80.59
67759;SHT31;54562;47.620;18.786;2023-04-25T04:21:49;9.27;80.79
67759;SHT31;54562;47.620;18.786;2023-04-25T04:24:55;9.23;81.02
67759;SHT31;54562;47.620;18.786;2023-04-25T04:28:01;9.21;81.21
67759;SHT31;54562;47.620;18.786;2023-04-25T04:31:12;9.16;81.42
67759;SHT31;54562;47.620;18.786;2023-04-25T04:34:20;9.13;81.62
67759;SHT31;54562;47.620;18.786;2023-04-25T04:37:27;9.09;81.75
67759;SHT31;54562;47.620;18.786;2023-04-25T04:40:34;9.05;81.94
67759;SHT31;54562;47.620;18.786;2023-04-25T04:43:40;9.03;82.13
67759;SHT31;54562;47.620;18.786;2023-04-25T04:46:48;9.00;82.28
67759;SHT31;54562;47.620;18.786;2023-04-25T04:49:54;8.98;82.46
67759;SHT31;54562;47.620;18.786;2023-04-25T04:53:00;8.96;82.49
67759;SHT31;54562;47.620;18.786;2023-04-25T04:56:08;8.92;82.68
67759;SHT31;54562;47.620;18.786;2023-04-25T04:59:16;8.89;82.84
67759;SHT31;54562;47.620;18.786;2023-04-25T05:02:24;8.88;82.94
67759;SHT31;54562;47.620;18.786;2023-04-25T05:05:31;8.86;83.12
67759;SHT31;54562;47.620;18.786;2023-04-25T05:08:37;8.85;83.20
67759;SHT31;54562;47.620;18.786;2023-04-25T05:11:44;8.84;83.24
67759;SHT31;54562;47.620;18.786;2023-04-25T05:14:50;8.83;83.32
67759;SHT31;54562;47.620;18.786;2023-04-25T05:17:57;8.82;83.46
67759;SHT31;54562;47.620;18.786;2023-04-25T05:21:03;8.81;83.53
67759;SHT31;54562;47.620;18.786;2023-04-25T05:24:12;8.80;83.64
67759;SHT31;54562;47.620;18.786;2023-04-25T05:27:19;8.81;83.78
67759;SHT31;54562;47.620;18.786;2023-04-25T05:30:26;8.81;83.80
67759;SHT31;54562;47.620;18.786;2023-04-25T05:33:32;8.82;83.87
67759;SHT31;54562;47.620;18.786;2023-04-25T05:36:39;8.84;84.00
67759;SHT31;54562;47.620;18.786;2023-04-25T05:39:46;8.85;84.07
67759;SHT31;54562;47.620;18.786;2023-04-25T05:42:52;8.89;84.18
67759;SHT31;54562;47.620;18.786;2023-04-25T05:45:59;8.93;84.20
67759;SHT31;54562;47.620;18.786;2023-04-25T05:49:06;8.97;84.22
67759;SHT31;54562;47.620;18.786;2023-04-25T05:52:12;9.03;84.29
67759;SHT31;54562;47.620;18.786;2023-04-25T05:55:19;9.08;84.28
67759;SHT31;54562;47.620;18.786;2023-04-25T05:58:25;9.13;84.20
67759;SHT31;54562;47.620;18.786;2023-04-25T06:01:32;9.17;84.10
67759;SHT31;54562;47.620;18.786;2023-04-25T06:04:38;9.23;84.11
67759;SHT31;54562;47.620;18.786;2023-04-25T06:07:44;9.30;84.05
67759;SHT31;54562;47.620;18.786;2023-04-25T06:10:51;9.38;83.93
67759;SHT31;54562;47.620;18.786;2023-04-25T06:13:59;9.48;83.93
67759;SHT31;54562;47.620;18.786;2023-04-25T06:17:06;9.59;83.86
67759;SHT31;54562;47.620;18.786;2023-04-25T06:20:13;9.71;83.87
67759;SHT31;54562;47.620;18.786;2023-04-25T06:23:20;9.80;83.69
67759;SHT31;54562;47.620;18.786;2023-04-25T06:26:26;9.92;83.64
67759;SHT31;54562;47.620;18.786;2023-04-25T06:29:32;10.01;83.42
67759;SHT31;54562;47.620;18.786;2023-04-25T06:32:39;10.08;83.21
67759;SHT31;54562;47.620;18.786;2023-04-25T06:35:45;10.15;82.90
67759;SHT31;54562;47.620;18.786;2023-04-25T06:38:51;10.19;82.57
67759;SHT31;54562;47.620;18.786;2023-04-25T06:41:58;10.24;82.47
67759;SHT31;54562;47.620;18.786;2023-04-25T06:45:05;10.31;82.39
67759;SHT31;54562;47.620;18.786;2023-04-25T06:48:13;10.39;82.47
67759;SHT31;54562;47.620;18.786;2023-04-25T06:51:20;10.47;82.32
67759;SHT31;54562;47.620;18.786;2023-04-25T06:54:28;10.54;82.07
67759;SHT31;54562;47.620;18.786;2023-04-25T06:57:34;10.59;81.82
67759;SHT31;54562;47.620;18.786;2023-04-25T07:00:42;10.66;81.71
67759;SHT31;54562;47.620;18.786;2023-04-25T07:07:25;10.79;81.35
67759;SHT31;54562;47.620;18.786;2023-04-25T07:10:31;10.83;81.14
67759;SHT31;54562;47.620;18.786;2023-04-25T07:16:51;10.99;80.79
67759;SHT31;54562;47.620;18.786;2023-04-25T07:19:59;11.07;80.52
67759;SHT31;54562;47.620;18.786;2023-04-25T07:23:07;11.17;80.43
67759;SHT31;54562;47.620;18.786;2023-04-25T07:26:13;11.27;80.07
67759;SHT31;54562;47.620;18.786;2023-04-25T07:29:20;11.36;79.85
67759;SHT31;54562;47.620;18.786;2023-04-25T07:32:26;11.45;79.53
67759;SHT31;54562;47.620;18.786;2023-04-25T07:35:33;11.53;79.32
67759;SHT31;54562;47.620;18.786;2023-04-25T07:38:39;11.69;79.62
67759;SHT31;54562;47.620;18.786;2023-04-25T07:41:47;11.83;79.22
67759;SHT31;54562;47.620;18.786;2023-04-25T07:44:57;11.88;78.92
67759;SHT31;54562;47.620;18.786;2023-04-25T07:48:05;11.90;78.82
67759;SHT31;54562;47.620;18.786;2023-04-25T07:51:11;11.89;78.21
67759;SHT31;54562;47.620;18.786;2023-04-25T07:54:18;11.83;78.12
67759;SHT31;54562;47.620;18.786;2023-04-25T07:57:24;11.82;78.01
67759;SHT31;54562;47.620;18.786;2023-04-25T08:00:30;11.80;77.82
67759;SHT31;54562;47.620;18.786;2023-04-25T08:03:37;11.80;77.72
67759;SHT31;54562;47.620;18.786;2023-04-25T08:06:44;11.79;77.75
67759;SHT31;54562;47.620;18.786;2023-04-25T08:09:51;11.79;77.81
67759;SHT31;54562;47.620;18.786;2023-04-25T08:12:57;11.79;77.61
67759;SHT31;54562;47.620;18.786;2023-04-25T08:16:03;11.75;77.44
67759;SHT31;54562;47.620;18.786;2023-04-25T08:19:11;11.66;77.32
67759;SHT31;54562;47.620;18.786;2023-04-25T08:22:17;11.60;77.41
67759;SHT31;54562;47.620;18.786;2023-04-25T08:25:24;11.58;77.58
67759;SHT31;54562;47.620;18.786;2023-04-25T08:28:30;11.55;77.67
67759;SHT31;54562;47.620;18.786;2023-04-25T08:31:37;11.53;77.78
67759;SHT31;54562;47.620;18.786;2023-04-25T08:34:47;11.49;77.75
67759;SHT31;54562;47.620;18.786;2023-04-25T08:37:57;11.44;77.90
67759;SHT31;54562;47.620;18.786;2023-04-25T08:41:02;11.42;78.03
67759;SHT31;54562;47.620;18.786;2023-04-25T08:44:10;11.44;78.28
67759;SHT31;54562;47.620;18.786;2023-04-25T08:47:17;11.50;78.14
67759;SHT31;54562;47.620;18.786;2023-04-25T08:50:26;11.62;78.18
67759;SHT31;54562;47.620;18.786;2023-04-25T08:53:34;11.77;77.93
67759;SHT31;54562;47.620;18.786;2023-04-25T09:00:14;12.08;77.85
67759;SHT31;54562;47.620;18.786;2023-04-25T09:03:21;12.24;77.57
67759;SHT31;54562;47.620;18.786;2023-04-25T09:06:28;12.35;77.31
67759;SHT31;54562;47.620;18.786;2023-04-25T09:09:34;12.47;76.79
67759;SHT31;54562;47.620;18.786;2023-04-25T09:12:41;12.58;76.39
67759;SHT31;54562;47.620;18.786;2023-04-25T09:15:48;12.61;76.06
67759;SHT31;54562;47.620;18.786;2023-04-25T09:18:55;12.65;76.00
67759;SHT31;54562;47.620;18.786;2023-04-25T09:22:01;12.71;75.78
67759;SHT31;54562;47.620;18.786;2023-04-25T09:25:10;12.75;75.50
67759;SHT31;54562;47.620;18.786;2023-04-25T09:28:17;12.68;75.11
67759;SHT31;54562;47.620;18.786;2023-04-25T09:31:33;12.67;75.43
67759;SHT31;54562;47.620;18.786;2023-04-25T09:34:40;12.70;75.07
67759;SHT31;54562;47.620;18.786;2023-04-25T09:37:47;12.65;74.45
67759;SHT31;54562;47.620;18.786;2023-04-25T09:40:55;12.57;73.92
67759;SHT31;54562;47.620;18.786;2023-04-25T09:44:02;12.49;74.10
67759;SHT31;54562;47.620;18.786;2023-04-25T09:47:10;12.49;74.20
67759;SHT31;54562;47.620;18.786;2023-04-25T09:50:18;12.52;74.12
67759;SHT31;54562;47.620;18.786;2023-04-25T09:53:27;12.52;74.13
67759;SHT31;54562;47.620;18.786;2023-04-25T09:56:35;12.52;73.79
67759;SHT31;54562;47.620;18.786;2023-04-25T09:59:44;12.50;73.62
67759;SHT31;54562;47.620;18.786;2023-04-25T10:02:53;12.51;73.53
67759;SHT31;54562;47.620;18.786;2023-04-25T10:06:02;12.56;73.48
67759;SHT31;54562;47.620;18.786;2023-04-25T10:09:11;12.62;73.63
67759;SHT31;54562;47.620;18.786;2023-04-25T10:12:18;12.67;72.99
67759;SHT31;54562;47.620;18.786;2023-04-25T10:15:25;12.71;72.82
67759;SHT31;54562;47.620;18.786;2023-04-25T10:18:32;12.79;72.99
67759;SHT31;54562;47.620;18.786;2023-04-25T10:21:43;12.93;73.29
67759;SHT31;54562;47.620;18.786;2023-04-25T10:24:52;13.08;72.67
67759;SHT31;54562;47.620;18.786;2023-04-25T10:28:00;13.18;71.65
67759;SHT31;54562;47.620;18.786;2023-04-25T10:31:08;13.31;71.27
67759;SHT31;54562;47.620;18.786;2023-04-25T10:34:14;13.47;70.46
67759;SHT31;54562;47.620;18.786;2023-04-25T10:37:21;13.66;70.49
67759;SHT31;54562;47.620;18.786;2023-04-25T10:40:28;13.93;69.94
67759;SHT31;54562;47.620;18.786;2023-04-25T10:46:38;14.30;68.32
67759;SHT31;54562;47.620;18.786;2023-04-25T10:49:46;14.50;67.64
67759;SHT31;54562;47.620;18.786;2023-04-25T10:52:56;14.57;66.56
67759;SHT31;54562;47.620;18.786;2023-04-25T10:56:20;14.64;66.01
67759;SHT31;54562;47.620;18.786;2023-04-25T10:59:27;14.94;66.28
67759;SHT31;54562;47.620;18.786;2023-04-25T11:02:37;15.35;66.44
67759;SHT31;54562;47.620;18.786;2023-04-25T11:05:48;15.83;64.97
67759;SHT31;54562;47.620;18.786;2023-04-25T11:09:00;16.12;63.37
67759;SHT31;54562;47.620;18.786;2023-04-25T11:12:16;16.15;62.75
67759;SHT31;54562;47.620;18.786;2023-04-25T11:15:23;16.21;61.49
67759;SHT31;54562;47.620;18.786;2023-04-25T11:18:29;15.99;60.51
67759;SHT31;54562;47.620;18.786;2023-04-25T11:21:46;15.64;60.55
67759;SHT31;54562;47.620;18.786;2023-04-25T11:24:52;15.36;60.43
67759;SHT31;54562;47.620;18.786;2023-04-25T11:28:05;15.05;60.80
67759;SHT31;54562;47.620;18.786;2023-04-25T11:31:13;14.82;61.66
67759;SHT31;54562;47.620;18.786;2023-04-25T11:34:19;14.70;62.17
67759;SHT31;54562;47.620;18.786;2023-04-25T11:37:26;14.66;62.56
67759;SHT31;54562;47.620;18.786;2023-04-25T11:40:32;14.55;62.78
67759;SHT31;54562;47.620;18.786;2023-04-25T11:46:49;15.07;63.71
67759;SHT31;54562;47.620;18.786;2023-04-25T11:49:56;15.72;62.22
67759;SHT31;54562;47.620;18.786;2023-04-25T11:53:04;16.34;62.01
67759;SHT31;54562;47.620;18.786;2023-04-25T11:56:11;16.81;60.25
67759;SHT31;54562;47.620;18.786;2023-04-25T11:59:20;16.66;57.16
67759;SHT31;54562;47.620;18.786;2023-04-25T12:02:31;16.58;57.31
67759;SHT31;54562;47.620;18.786;2023-04-25T12:05:43;16.45;58.09
67759;SHT31;54562;47.620;18.786;2023-04-25T12:09:00;16.34;57.61
67759;SHT31;54562;47.620;18.786;2023-04-25T12:12:09;16.18;57.37
67759;SHT31;54562;47.620;18.786;2023-04-25T12:15:17;15.95;56.94
67759;SHT31;54562;47.620;18.786;2023-04-25T12:18:28;15.65;56.65
67759;SHT31;54562;47.620;18.786;2023-04-25T12:21:35;15.53;57.55
67759;SHT31;54562;47.620;18.786;2023-04-25T12:25:00;15.61;58.37
67759;SHT31;54562;47.620;18.786;2023-04-25T12:28:12;15.98;58.29
67759;SHT31;54562;47.620;18.786;2023-04-25T12:31:22;16.46;58.58
67759;SHT31;54562;47.620;18.786;2023-04-25T12:34:29;16.53;56.27
67759;SHT31;54562;47.620;18.786;2023-04-25T12:37:39;16.40;56.20
67759;SHT31;54562;47.620;18.786;2023-04-25T12:40:47;16.22;57.25
67759;SHT31;54562;47.620;18.786;2023-04-25T12:43:53;16.48;57.55
67759;SHT31;54562;47.620;18.786;2023-04-25T12:46:59;16.81;56.36
67759;SHT31;54562;47.620;18.786;2023-04-25T12:50:07;16.85;56.54
67759;SHT31;54562;47.620;18.786;2023-04-25T12:53:14;16.77;55.63
67759;SHT31;54562;47.620;18.786;2023-04-25T12:56:20;16.79;56.01
67759;SHT31;54562;47.620;18.786;2023-04-25T12:59:28;17.16;56.56
67759;SHT31;54562;47.620;18.786;2023-04-25T13:02:34;17.26;53.62
67759;SHT31;54562;47.620;18.786;2023-04-25T13:05:50;17.01;53.56
67759;SHT31;54562;47.620;18.786;2023-04-25T13:08:57;16.92;53.67
67759;SHT31;54562;47.620;18.786;2023-04-25T13:12:04;17.00;52.72
67759;SHT31;54562;47.620;18.786;2023-04-25T13:15:11;16.87;52.53
67759;SHT31;54562;47.620;18.786;2023-04-25T13:18:18;16.65;52.77
67759;SHT31;54562;47.620;18.786;2023-04-25T13:21:24;16.64;53.19
67759;SHT31;54562;47.620;18.786;2023-04-25T13:24:31;16.96;52.47
67759;SHT31;54562;47.620;18.786;2023-04-25T13:27:38;17.05;52.07
67759;SHT31;54562;47.620;18.786;2023-04-25T13:30:47;16.96;52.22
67759;SHT31;54562;47.620;18.786;2023-04-25T13:41:40;17.03;52.13
67759;SHT31;54562;47.620;18.786;2023-04-25T13:44:46;17.20;51.97
67759;SHT31;54562;47.620;18.786;2023-04-25T13:47:52;17.52;51.87
67759;SHT31;54562;47.620;18.786;2023-04-25T13:50:58;17.61;51.35
67759;SHT31;54562;47.620;18.786;2023-04-25T13:54:05;17.25;50.39
67759;SHT31;54562;47.620;18.786;2023-04-25T13:57:12;17.18;51.80
67759;SHT31;54562;47.620;18.786;2023-04-25T14:00:18;17.36;51.00
67759;SHT31;54562;47.620;18.786;2023-04-25T14:03:25;17.41;50.82
67759;SHT31;54562;47.620;18.786;2023-04-25T14:06:32;17.46;50.15
67759;SHT31;54562;47.620;18.786;2023-04-25T14:09:39;17.34;49.63
67759;SHT31;54562;47.620;18.786;2023-04-25T14:12:46;17.17;49.47
67759;SHT31;54562;47.620;18.786;2023-04-25T14:15:52;16.95;49.28
67759;SHT31;54562;47.620;18.786;2023-04-25T14:18:58;16.51;49.57
67759;SHT31;54562;47.620;18.786;2023-04-25T14:22:05;16.21;50.71
67759;SHT31;54562;47.620;18.786;2023-04-25T14:25:12;16.28;51.21
67759;SHT31;54562;47.620;18.786;2023-04-25T14:28:18;16.58;51.24
67759;SHT31;54562;47.620;18.786;2023-04-25T14:31:25;16.53;50.83
67759;SHT31;54562;47.620;18.786;2023-04-25T14:34:32;16.69;51.66
67759;SHT31;54562;47.620;18.786;2023-04-25T14:37:39;17.08;51.63
67759;SHT31;54562;47.620;18.786;2023-04-25T14:40:45;17.35;50.73
67759;SHT31;54562;47.620;18.786;2023-04-25T14:43:52;17.51;49.96
67759;SHT31;54562;47.620;18.786;2023-04-25T14:46:59;17.38;49.75
67759;SHT31;54562;47.620;18.786;2023-04-25T14:50:07;16.88;49.95
67759;SHT31;54562;47.620;18.786;2023-04-25T14:53:15;16.32;50.56
67759;SHT31;54562;47.620;18.786;2023-04-25T14:56:21;15.90;50.59
67759;SHT31;54562;47.620;18.786;2023-04-25T14:59:28;15.54;50.84
67759;SHT31;54562;47.620;18.786;2023-04-25T15:02:34;15.25;51.63
67759;SHT31;54562;47.620;18.786;2023-04-25T15:05:41;15.03;51.95
67759;SHT31;54562;47.620;18.786;2023-04-25T15:08:48;14.82;52.38
67759;SHT31;54562;47.620;18.786;2023-04-25T15:11:54;14.63;52.67
67759;SHT31;54562;47.620;18.786;2023-04-25T15:15:01;14.49;53.28
67759;SHT31;54562;47.620;18.786;2023-04-25T15:18:10;14.36;54.67
67759;SHT31;54562;47.620;18.786;2023-04-25T15:21:15;14.07;55.93
67759;SHT31;54562;47.620;18.786;2023-04-25T15:24:21;13.79;57.13
67759;SHT31;54562;47.620;18.786;2023-04-25T15:27:28;13.56;57.77
67759;SHT31;54562;47.620;18.786;2023-04-25T15:30:37;13.41;58.45
67759;SHT31;54562;47.620;18.786;2023-04-25T15:33:44;13.31;58.97
67759;SHT31;54562;47.620;18.786;2023-04-25T15:36:50;13.23;59.27
67759;SHT31;54562;47.620;18.786;2023-04-25T15:40:00;13.19;59.44
67759;SHT31;54562;47.620;18.786;2023-04-25T15:43:11;13.15;59.97
67759;SHT31;54562;47.620;18.786;2023-04-25T15:46:19;13.14;60.33
67759;SHT31;54562;47.620;18.786;2023-04-25T15:49:26;13.16;60.53
67759;SHT31;54562;47.620;18.786;2023-04-25T15:52:33;13.18;60.42
67759;SHT31;54562;47.620;18.786;2023-04-25T15:55:40;13.17;60.67
67759;SHT31;54562;47.620;18.786;2023-04-25T15:58:47;13.16;60.72
67759;SHT31;54562;47.620;18.786;2023-04-25T16:01:54;13.15;61.16
67759;SHT31;54562;47.620;18.786;2023-04-25T16:05:01;13.13;61.08
67759;SHT31;54562;47.620;18.786;2023-04-25T16:08:09;13.13;61.04
67759;SHT31;54562;47.620;18.786;2023-04-25T16:11:15;13.23;61.11
67759;SHT31;54562;47.620;18.786;2023-04-25T16:14:21;13.31;61.02
67759;SHT31;54562;47.620;18.786;2023-04-25T16:17:28;13.33;60.64
67759;SHT31;54562;47.620;18.786;2023-04-25T16:20:35;13.39;60.92
67759;SHT31;54562;47.620;18.786;2023-04-25T16:23:41;13.44;60.92
67759;SHT31;54562;47.620;18.786;2023-04-25T16:26:48;13.49;60.88
67759;SHT31;54562;47.620;18.786;2023-04-25T16:29:55;13.60;60.73
67759;SHT31;54562;47.620;18.786;2023-04-25T16:33:01;13.72;60.30
67759;SHT31;54562;47.620;18.786;2023-04-25T16:36:08;13.82;60.24
67759;SHT31;54562;47.620;18.786;2023-04-25T16:39:15;13.89;60.23
67759;SHT31;54562;47.620;18.786;2023-04-25T16:42:25;13.95;60.17
67759;SHT31;54562;47.620;18.786;2023-04-25T16:45:32;13.98;60.09
67759;SHT31;54562;47.620;18.786;2023-04-25T16:48:39;13.99;60.06
67759;SHT31;54562;47.620;18.786;2023-04-25T16:51:45;13.98;60.38
67759;SHT31;54562;47.620;18.786;2023-04-25T16:54:51;13.90;60.17
67759;SHT31;54562;47.620;18.786;2023-04-25T16:57:57;13.79;60.24
67759;SHT31;54562;47.620;18.786;2023-04-25T17:01:04;13.68;60.36
67759;SHT31;54562;47.620;18.786;2023-04-25T17:04:11;13.54;60.22
67759;SHT31;54562;47.620;18.786;2023-04-25T17:07:17;13.37;60.55
67759;SHT31;54562;47.620;18.786;2023-04-25T17:10:26;13.19;60.95
67759;SHT31;54562;47.620;18.786;2023-04-25T17:13:33;13.04;61.42
67759;SHT31;54562;47.620;18.786;2023-04-25T17:16:39;12.89;61.97
67759;SHT31;54562;47.620;18.786;2023-04-25T17:19:46;12.75;62.36
67759;SHT31;54562;47.620;18.786;2023-04-25T17:22:52;12.64;62.78
67759;SHT31;54562;47.620;18.786;2023-04-25T17:25:59;12.52;63.12
67759;SHT31;54562;47.620;18.786;2023-04-25T17:29:05;12.41;63.58
67759;SHT31;54562;47.620;18.786;2023-04-25T17:32:12;12.28;63.96
67759;SHT31;54562;47.620;18.786;2023-04-25T17:35:20;12.18;64.30
67759;SHT31;54562;47.620;18.786;2023-04-25T17:38:26;12.08;64.55
67759;SHT31;54562;47.620;18.786;2023-04-25T17:41:33;11.96;64.94
67759;SHT31;54562;47.620;18.786;2023-04-25T17:44:38;11.85;65.34
67759;SHT31;54562;47.620;18.786;2023-04-25T17:47:44;11.72;65.62
67759;SHT31;54562;47.620;18.786;2023-04-25T17:50:51;11.60;66.09
67759;SHT31;54562;47.620;18.786;2023-04-25T17:53:58;11.48;66.47
67759;SHT31;54562;47.620;18.786;2023-04-25T17:57:05;11.35;66.67
67759;SHT31;54562;47.620;18.786;2023-04-25T18:00:12;11.25;66.93
67759;SHT31;54562;47.620;18.786;2023-04-25T18:03:20;11.15;67.24
67759;SHT31;54562;47.620;18.786;2023-04-25T18:06:27;11.07;67.43
67759;SHT31;54562;47.620;18.786;2023-04-25T18:09:34;10.99;67.61
67759;SHT31;54562;47.620;18.786;2023-04-25T18:12:41;10.90;67.88
67759;SHT31;54562;47.620;18.786;2023-04-25T18:15:47;10.79;68.17
67759;SHT31;54562;47.620;18.786;2023-04-25T18:18:54;10.69;68.30
67759;SHT31;54562;47.620;18.786;2023-04-25T18:22:07;10.62;68.56
67759;SHT31;54562;47.620;18.786;2023-04-25T18:25:15;10.55;68.72
67759;SHT31;54562;47.620;18.786;2023-04-25T18:28:21;10.46;68.89
67759;SHT31;54562;47.620;18.786;2023-04-25T18:31:28;10.39;68.90
67759;SHT31;54562;47.620;18.786;2023-04-25T18:34:35;10.34;69.01
67759;SHT31;54562;47.620;18.786;2023-04-25T18:37:46;10.28;69.07
67759;SHT31;54562;47.620;18.786;2023-04-25T18:40:55;10.21;69.04
67759;SHT31;54562;47.620;18.786;2023-04-25T18:44:21;10.12;69.15
67759;SHT31;54562;47.620;18.786;2023-04-25T18:47:26;10.06;69.17
67759;SHT31;54562;47.620;18.786;2023-04-25T18:50:33;10.03;69.20
67759;SHT31;54562;47.620;18.786;2023-04-25T18:53:39;9.98;69.22
67759;SHT31;54562;47.620;18.786;2023-04-25T18:56:46;9.96;69.25
67759;SHT31;54562;47.620;18.786;2023-04-25T18:59:58;9.94;69.38
67759;SHT31;54562;47.620;18.786;2023-04-25T19:03:09;9.90;69.65
67759;SHT31;54562;47.620;18.786;2023-04-25T19:06:16;9.87;69.57
67759;SHT31;54562;47.620;18.786;2023-04-25T19:09:25;9.85;70.01
67759;SHT31;54562;47.620;18.786;2023-04-25T19:12:34;9.82;69.85
67759;SHT31;54562;47.620;18.786;2023-04-25T19:15:42;9.78;69.82
67759;SHT31;54562;47.620;18.786;2023-04-25T19:18:52;9.72;69.94
67759;SHT31;54562;47.620;18.786;2023-04-25T19:21:59;9.68;70.37
67759;SHT31;54562;47.620;18.786;2023-04-25T19:25:07;9.68;70.49
67759;SHT31;54562;47.620;18.786;2023-04-25T19:28:14;9.67;70.49
67759;SHT31;54562;47.620;18.786;2023-04-25T19:31:23;9.65;70.49
67759;SHT31;54562;47.620;18.786;2023-04-25T19:34:29;9.62;71.03
67759;SHT31;54562;47.620;18.786;2023-04-25T19:37:36;9.59;70.85
67759;SHT31;54562;47.620;18.786;2023-04-25T19:40:48;9.51;70.97
67759;SHT31;54562;47.620;18.786;2023-04-25T19:43:55;9.42;71.14
67759;SHT31;54562;47.620;18.786;2023-04-25T19:47:05;9.36;71.09
67759;SHT31;54562;47.620;18.786;2023-04-25T19:50:13;9.28;71.15
67759;SHT31;54562;47.620;18.786;2023-04-25T19:53:20;9.20;71.47
67759;SHT31;54562;47.620;18.786;2023-04-25T19:56:26;9.14;71.69
67759;SHT31;54562;47.620;18.786;2023-04-25T19:59:32;9.07;71.92